sensor_id;sensor_type;location;lat;lon;timestamp;temperature;humidity
19060;DHT22;9663;48.996;8.334;2022-09-30T00:00:01;12.70;67.90
19060;DHT22;9663;48.996;8.334;2022-09-30T00:02:26;12.50;67.80
19060;DHT22;9663;48.996;8.334;2022-09-30T00:04:52;12.50;67.80
19060;DHT22;9663;48.996;8.334;2022-09-30T00:07:17;12.50;67.80
19060;DHT22;9663;48.996;8.334;2022-09-30T00:09:43;12.50;67.90
19060;DHT22;9663;48.996;8.334;2022-09-30T00:12:09;12.40;67.90
19060;DHT22;9663;48.996;8.334;2022-09-30T00:14:35;12.40;67.90
19060;DHT22;9663;48.996;8.334;2022-09-30T00:17:01;12.30;67.90
19060;DHT22;9663;48.996;8.334;2022-09-30T00:19:26;12.60;68.10
19060;DHT22;9663;48.996;8.334;2022-09-30T00:21:52;12.40;68.00
19060;DHT22;9663;48.996;8.334;2022-09-30T00:24:18;12.40;67.90
19060;DHT22;9663;48.996;8.334;2022-09-30T00:26:43;12.20;67.80
19060;DHT22;9663;48.996;8.334;2022-09-30T00:29:09;12.30;68.00
19060;DHT22;9663;48.996;8.334;2022-09-30T00:31:35;12.30;68.10
19060;DHT22;9663;48.996;8.334;2022-09-30T00:34:01;12.30;68.20
19060;DHT22;9663;48.996;8.334;2022-09-30T00:36:38;12.30;68.20
19060;DHT22;9663;48.996;8.334;2022-09-30T00:39:16;12.20;68.20
19060;DHT22;9663;48.996;8.334;2022-09-30T00:41:46;12.30;68.40
19060;DHT22;9663;48.996;8.334;2022-09-30T00:55:50;12.30;68.80
19060;DHT22;9663;48.996;8.334;2022-09-30T00:58:32;12.40;68.70
19060;DHT22;9663;48.996;8.334;2022-09-30T01:01:01;12.30;68.50
19060;DHT22;9663;48.996;8.334;2022-09-30T01:03:33;12.40;68.50
19060;DHT22;9663;48.996;8.334;2022-09-30T01:06:01;12.40;68.60
19060;DHT22;9663;48.996;8.334;2022-09-30T01:08:28;12.40;68.50
19060;DHT22;9663;48.996;8.334;2022-09-30T01:10:56;12.40;68.60
19060;DHT22;9663;48.996;8.334;2022-09-30T01:13:23;12.50;68.70
19060;DHT22;9663;48.996;8.334;2022-09-30T01:25:04;12.40;68.80
19060;DHT22;9663;48.996;8.334;2022-09-30T01:27:54;12.30;68.70
19060;DHT22;9663;48.996;8.334;2022-09-30T01:31:18;12.30;68.60
19060;DHT22;9663;48.996;8.334;2022-09-30T01:40:48;12.20;69.50
19060;DHT22;9663;48.996;8.334;2022-09-30T01:49:48;12.20;69.30
19060;DHT22;9663;48.996;8.334;2022-09-30T01:52:51;12.20;68.80
19060;DHT22;9663;48.996;8.334;2022-09-30T01:55:59;12.30;69.10
19060;DHT22;9663;48.996;8.334;2022-09-30T01:58:46;12.10;69.30
19060;DHT22;9663;48.996;8.334;2022-09-30T02:01:26;12.20;69.20
19060;DHT22;9663;48.996;8.334;2022-09-30T02:03:59;12.20;69.70
19060;DHT22;9663;48.996;8.334;2022-09-30T02:06:43;12.20;68.90
19060;DHT22;9663;48.996;8.334;2022-09-30T02:09:15;12.20;69.00
19060;DHT22;9663;48.996;8.334;2022-09-30T02:11:47;12.20;68.90
19060;DHT22;9663;48.996;8.334;2022-09-30T02:14:46;12.20;68.90
19060;DHT22;9663;48.996;8.334;2022-09-30T02:17:19;12.20;69.20
19060;DHT22;9663;48.996;8.334;2022-09-30T02:19:59;12.20;68.80
19060;DHT22;9663;48.996;8.334;2022-09-30T02:22:38;12.20;69.00
19060;DHT22;9663;48.996;8.334;2022-09-30T02:25:15;12.20;69.00
19060;DHT22;9663;48.996;8.334;2022-09-30T02:27:56;12.10;69.00
19060;DHT22;9663;48.996;8.334;2022-09-30T02:30:26;12.10;69.20
19060;DHT22;9663;48.996;8.334;2022-09-30T02:32:56;12.10;68.90
19060;DHT22;9663;48.996;8.334;2022-09-30T02:35:29;12.10;69.10
19060;DHT22;9663;48.996;8.334;2022-09-30T02:38:01;12.10;69.00
19060;DHT22;9663;48.996;8.334;2022-09-30T02:40:37;12.10;69.10
19060;DHT22;9663;48.996;8.334;2022-09-30T02:43:09;12.10;69.20
19060;DHT22;9663;48.996;8.334;2022-09-30T02:45:46;12.10;69.20
19060;DHT22;9663;48.996;8.334;2022-09-30T02:48:30;12.00;69.40
19060;DHT22;9663;48.996;8.334;2022-09-30T02:51:07;12.20;69.50
19060;DHT22;9663;48.996;8.334;2022-09-30T02:53:44;12.10;69.50
19060;DHT22;9663;48.996;8.334;2022-09-30T02:56:33;12.10;69.50
19060;DHT22;9663;48.996;8.334;2022-09-30T02:59:10;12.20;69.80
19060;DHT22;9663;48.996;8.334;2022-09-30T03:01:36;12.20;69.50
19060;DHT22;9663;48.996;8.334;2022-09-30T03:04:07;12.20;69.50
19060;DHT22;9663;48.996;8.334;2022-09-30T03:06:37;12.30;69.60
19060;DHT22;9663;48.996;8.334;2022-09-30T03:09:04;12.30;69.50
19060;DHT22;9663;48.996;8.334;2022-09-30T03:11:30;12.30;69.50
19060;DHT22;9663;48.996;8.334;2022-09-30T03:14:38;12.40;69.70
19060;DHT22;9663;48.996;8.334;2022-09-30T03:17:35;12.30;70.00
19060;DHT22;9663;48.996;8.334;2022-09-30T03:20:17;12.30;69.70
19060;DHT22;9663;48.996;8.334;2022-09-30T03:26:29;12.30;69.50
19060;DHT22;9663;48.996;8.334;2022-09-30T03:35:59;12.30;69.70
19060;DHT22;9663;48.996;8.334;2022-09-30T03:41:16;12.30;69.80
19060;DHT22;9663;48.996;8.334;2022-09-30T03:46:39;12.30;69.40
19060;DHT22;9663;48.996;8.334;2022-09-30T03:49:17;12.30;69.70
19060;DHT22;9663;48.996;8.334;2022-09-30T03:51:47;12.20;69.40
19060;DHT22;9663;48.996;8.334;2022-09-30T03:54:13;12.20;69.40
19060;DHT22;9663;48.996;8.334;2022-09-30T03:56:39;12.20;69.40
19060;DHT22;9663;48.996;8.334;2022-09-30T03:59:25;12.30;69.40
19060;DHT22;9663;48.996;8.334;2022-09-30T04:01:55;12.20;69.70
19060;DHT22;9663;48.996;8.334;2022-09-30T04:04:24;12.20;69.40
19060;DHT22;9663;48.996;8.334;2022-09-30T04:06:49;12.40;69.50
19060;DHT22;9663;48.996;8.334;2022-09-30T04:09:15;12.20;69.40
19060;DHT22;9663;48.996;8.334;2022-09-30T04:11:41;12.20;69.40
19060;DHT22;9663;48.996;8.334;2022-09-30T04:14:07;12.10;69.30
19060;DHT22;9663;48.996;8.334;2022-09-30T04:16:33;12.10;69.30
19060;DHT22;9663;48.996;8.334;2022-09-30T04:18:59;12.10;69.30
19060;DHT22;9663;48.996;8.334;2022-09-30T04:21:24;12.00;69.30
19060;DHT22;9663;48.996;8.334;2022-09-30T04:23:54;12.00;69.40
19060;DHT22;9663;48.996;8.334;2022-09-30T04:26:20;12.00;69.50
19060;DHT22;9663;48.996;8.334;2022-09-30T04:28:46;11.90;69.40
19060;DHT22;9663;48.996;8.334;2022-09-30T04:31:13;11.90;69.50
19060;DHT22;9663;48.996;8.334;2022-09-30T04:33:41;11.90;69.60
19060;DHT22;9663;48.996;8.334;2022-09-30T04:36:07;11.90;69.70
19060;DHT22;9663;48.996;8.334;2022-09-30T04:38:33;11.90;69.80
19060;DHT22;9663;48.996;8.334;2022-09-30T04:41:02;11.90;69.90
19060;DHT22;9663;48.996;8.334;2022-09-30T04:43:29;12.00;70.10
19060;DHT22;9663;48.996;8.334;2022-09-30T04:45:55;12.00;70.00
19060;DHT22;9663;48.996;8.334;2022-09-30T04:48:22;12.00;70.00
19060;DHT22;9663;48.996;8.334;2022-09-30T04:50:49;11.90;70.00
19060;DHT22;9663;48.996;8.334;2022-09-30T04:53:18;12.00;70.10
19060;DHT22;9663;48.996;8.334;2022-09-30T04:55:44;12.00;70.20
19060;DHT22;9663;48.996;8.334;2022-09-30T04:58:11;12.10;70.20
19060;DHT22;9663;48.996;8.334;2022-09-30T05:00:37;12.10;70.20
19060;DHT22;9663;48.996;8.334;2022-09-30T05:03:03;12.10;70.10
19060;DHT22;9663;48.996;8.334;2022-09-30T05:05:31;12.10;70.10
19060;DHT22;9663;48.996;8.334;2022-09-30T05:08:01;12.10;70.10
19060;DHT22;9663;48.996;8.334;2022-09-30T05:10:28;12.10;70.20
19060;DHT22;9663;48.996;8.334;2022-09-30T05:12:55;12.10;70.10
19060;DHT22;9663;48.996;8.334;2022-09-30T05:15:22;12.10;70.00
19060;DHT22;9663;48.996;8.334;2022-09-30T05:17:48;12.10;70.00
19060;DHT22;9663;48.996;8.334;2022-09-30T05:20:14;12.20;70.00
19060;DHT22;9663;48.996;8.334;2022-09-30T05:22:40;12.10;70.00
19060;DHT22;9663;48.996;8.334;2022-09-30T05:25:06;12.10;70.10
19060;DHT22;9663;48.996;8.334;2022-09-30T05:27:32;12.10;70.20
19060;DHT22;9663;48.996;8.334;2022-09-30T05:29:58;12.10;70.20
19060;DHT22;9663;48.996;8.334;2022-09-30T05:32:23;12.00;70.20
19060;DHT22;9663;48.996;8.334;2022-09-30T05:34:49;12.10;70.20
19060;DHT22;9663;48.996;8.334;2022-09-30T05:37:15;12.10;70.20
19060;DHT22;9663;48.996;8.334;2022-09-30T05:39:40;12.10;70.30
19060;DHT22;9663;48.996;8.334;2022-09-30T05:42:06;12.10;70.30
19060;DHT22;9663;48.996;8.334;2022-09-30T05:44:32;12.10;70.30
19060;DHT22;9663;48.996;8.334;2022-09-30T05:46:58;12.20;70.30
19060;DHT22;9663;48.996;8.334;2022-09-30T05:49:24;12.10;70.30
19060;DHT22;9663;48.996;8.334;2022-09-30T05:51:51;12.20;70.30
19060;DHT22;9663;48.996;8.334;2022-09-30T05:54:17;12.20;70.40
19060;DHT22;9663;48.996;8.334;2022-09-30T05:56:43;12.20;70.30
19060;DHT22;9663;48.996;8.334;2022-09-30T05:59:08;12.20;70.30
19060;DHT22;9663;48.996;8.334;2022-09-30T06:01:35;12.20;70.30
19060;DHT22;9663;48.996;8.334;2022-09-30T06:04:00;12.20;70.30
19060;DHT22;9663;48.996;8.334;2022-09-30T06:06:26;12.20;70.30
19060;DHT22;9663;48.996;8.334;2022-09-30T06:08:52;12.10;70.30
19060;DHT22;9663;48.996;8.334;2022-09-30T06:11:19;12.20;70.50
19060;DHT22;9663;48.996;8.334;2022-09-30T06:13:47;12.20;70.50
19060;DHT22;9663;48.996;8.334;2022-09-30T06:16:14;12.30;70.60
19060;DHT22;9663;48.996;8.334;2022-09-30T06:18:40;12.30;70.60
19060;DHT22;9663;48.996;8.334;2022-09-30T06:21:09;12.30;70.60
19060;DHT22;9663;48.996;8.334;2022-09-30T06:23:37;12.40;70.70
19060;DHT22;9663;48.996;8.334;2022-09-30T06:26:04;12.40;70.60
19060;DHT22;9663;48.996;8.334;2022-09-30T06:28:32;12.50;70.70
19060;DHT22;9663;48.996;8.334;2022-09-30T06:31:03;12.50;70.50
19060;DHT22;9663;48.996;8.334;2022-09-30T06:33:30;12.60;70.60
19060;DHT22;9663;48.996;8.334;2022-09-30T06:35:56;12.60;71.40
19060;DHT22;9663;48.996;8.334;2022-09-30T06:38:23;12.60;70.60
19060;DHT22;9663;48.996;8.334;2022-09-30T06:40:49;12.70;70.70
19060;DHT22;9663;48.996;8.334;2022-09-30T06:43:15;12.70;70.70
19060;DHT22;9663;48.996;8.334;2022-09-30T06:45:44;12.80;71.40
19060;DHT22;9663;48.996;8.334;2022-09-30T06:48:11;12.80;70.60
19060;DHT22;9663;48.996;8.334;2022-09-30T06:50:38;12.80;70.50
19060;DHT22;9663;48.996;8.334;2022-09-30T06:53:05;12.90;70.50
19060;DHT22;9663;48.996;8.334;2022-09-30T06:55:33;13.30;70.70
19060;DHT22;9663;48.996;8.334;2022-09-30T06:58:13;12.90;70.40
19060;DHT22;9663;48.996;8.334;2022-09-30T07:00:39;13.00;70.70
19060;DHT22;9663;48.996;8.334;2022-09-30T07:03:05;13.00;70.50
19060;DHT22;9663;48.996;8.334;2022-09-30T07:05:35;13.10;70.70
19060;DHT22;9663;48.996;8.334;2022-09-30T07:08:02;13.20;70.80
19060;DHT22;9663;48.996;8.334;2022-09-30T07:10:28;13.30;70.80
19060;DHT22;9663;48.996;8.334;2022-09-30T07:12:53;13.40;70.90
19060;DHT22;9663;48.996;8.334;2022-09-30T07:15:20;13.50;70.90
19060;DHT22;9663;48.996;8.334;2022-09-30T07:17:54;13.70;70.90
19060;DHT22;9663;48.996;8.334;2022-09-30T07:20:23;13.80;71.00
19060;DHT22;9663;48.996;8.334;2022-09-30T07:22:49;13.90;70.80
19060;DHT22;9663;48.996;8.334;2022-09-30T07:25:15;14.00;70.70
19060;DHT22;9663;48.996;8.334;2022-09-30T07:27:41;14.20;70.70
19060;DHT22;9663;48.996;8.334;2022-09-30T07:30:08;14.40;70.30
19060;DHT22;9663;48.996;8.334;2022-09-30T07:32:35;14.40;69.90
19060;DHT22;9663;48.996;8.334;2022-09-30T07:35:01;14.50;69.90
19060;DHT22;9663;48.996;8.334;2022-09-30T07:37:26;14.70;70.20
19060;DHT22;9663;48.996;8.334;2022-09-30T07:39:52;14.70;70.10
19060;DHT22;9663;48.996;8.334;2022-09-30T07:42:18;14.90;71.00
19060;DHT22;9663;48.996;8.334;2022-09-30T07:44:46;15.20;69.80
19060;DHT22;9663;48.996;8.334;2022-09-30T07:47:16;15.20;69.40
19060;DHT22;9663;48.996;8.334;2022-09-30T07:49:44;15.40;69.40
19060;DHT22;9663;48.996;8.334;2022-09-30T07:52:11;15.50;69.20
19060;DHT22;9663;48.996;8.334;2022-09-30T07:54:38;15.60;69.00
19060;DHT22;9663;48.996;8.334;2022-09-30T07:57:04;15.80;68.90
19060;DHT22;9663;48.996;8.334;2022-09-30T07:59:33;16.10;68.80
19060;DHT22;9663;48.996;8.334;2022-09-30T08:02:02;16.20;68.40
19060;DHT22;9663;48.996;8.334;2022-09-30T08:04:28;16.10;68.30
19060;DHT22;9663;48.996;8.334;2022-09-30T08:06:58;16.20;68.00
19060;DHT22;9663;48.996;8.334;2022-09-30T08:09:26;16.40;67.90
19060;DHT22;9663;48.996;8.334;2022-09-30T08:11:54;16.50;67.90
19060;DHT22;9663;48.996;8.334;2022-09-30T08:14:22;16.50;67.90
19060;DHT22;9663;48.996;8.334;2022-09-30T08:16:50;16.70;68.10
19060;DHT22;9663;48.996;8.334;2022-09-30T08:19:21;16.80;67.90
19060;DHT22;9663;48.996;8.334;2022-09-30T08:21:48;16.90;67.30
19060;DHT22;9663;48.996;8.334;2022-09-30T08:24:14;17.00;67.10
19060;DHT22;9663;48.996;8.334;2022-09-30T08:26:41;17.10;66.50
19060;DHT22;9663;48.996;8.334;2022-09-30T08:29:07;17.10;66.00
19060;DHT22;9663;48.996;8.334;2022-09-30T08:31:35;17.10;66.00
19060;DHT22;9663;48.996;8.334;2022-09-30T08:34:01;17.10;65.70
19060;DHT22;9663;48.996;8.334;2022-09-30T08:36:28;17.00;65.60
19060;DHT22;9663;48.996;8.334;2022-09-30T08:38:54;16.90;65.40
19060;DHT22;9663;48.996;8.334;2022-09-30T08:41:29;16.90;65.60
19060;DHT22;9663;48.996;8.334;2022-09-30T08:50:10;16.80;65.90
19060;DHT22;9663;48.996;8.334;2022-09-30T08:52:51;16.90;66.40
19060;DHT22;9663;48.996;8.334;2022-09-30T08:55:24;16.90;65.70
19060;DHT22;9663;48.996;8.334;2022-09-30T08:57:55;16.90;65.50
19060;DHT22;9663;48.996;8.334;2022-09-30T09:00:22;16.80;65.60
19060;DHT22;9663;48.996;8.334;2022-09-30T09:02:49;16.90;65.80
19060;DHT22;9663;48.996;8.334;2022-09-30T09:08:42;16.80;65.30
19060;DHT22;9663;48.996;8.334;2022-09-30T09:14:55;16.80;65.70
19060;DHT22;9663;48.996;8.334;2022-09-30T09:20:17;16.90;65.80
19060;DHT22;9663;48.996;8.334;2022-09-30T09:22:46;16.90;65.60
19060;DHT22;9663;48.996;8.334;2022-09-30T09:25:17;16.90;65.50
19060;DHT22;9663;48.996;8.334;2022-09-30T09:30:23;16.90;65.80
19060;DHT22;9663;48.996;8.334;2022-09-30T09:32:53;17.00;66.20
19060;DHT22;9663;48.996;8.334;2022-09-30T09:42:32;17.40;66.10
19060;DHT22;9663;48.996;8.334;2022-09-30T09:44:53;17.60;65.30
19060;DHT22;9663;48.996;8.334;2022-09-30T09:47:27;17.80;65.00
19060;DHT22;9663;48.996;8.334;2022-09-30T09:50:00;18.10;65.40
19060;DHT22;9663;48.996;8.334;2022-09-30T09:55:38;18.00;64.40
19060;DHT22;9663;48.996;8.334;2022-09-30T09:58:05;18.20;65.00
19060;DHT22;9663;48.996;8.334;2022-09-30T10:00:34;18.10;64.40
19060;DHT22;9663;48.996;8.334;2022-09-30T10:03:25;18.30;64.30
19060;DHT22;9663;48.996;8.334;2022-09-30T10:06:10;18.10;64.40
19060;DHT22;9663;48.996;8.334;2022-09-30T10:08:57;18.40;64.10
19060;DHT22;9663;48.996;8.334;2022-09-30T10:11:25;18.30;64.10
19060;DHT22;9663;48.996;8.334;2022-09-30T10:13:59;18.30;64.50
19060;DHT22;9663;48.996;8.334;2022-09-30T10:16:32;18.40;64.10
19060;DHT22;9663;48.996;8.334;2022-09-30T10:19:01;18.50;64.00
19060;DHT22;9663;48.996;8.334;2022-09-30T10:21:29;18.50;64.30
19060;DHT22;9663;48.996;8.334;2022-09-30T10:23:55;18.60;64.20
19060;DHT22;9663;48.996;8.334;2022-09-30T10:26:26;18.70;64.20
19060;DHT22;9663;48.996;8.334;2022-09-30T10:29:00;18.70;64.10
19060;DHT22;9663;48.996;8.334;2022-09-30T10:31:39;18.80;63.50
19060;DHT22;9663;48.996;8.334;2022-09-30T10:36:51;18.90;63.30
19060;DHT22;9663;48.996;8.334;2022-09-30T10:39:33;18.90;63.00
19060;DHT22;9663;48.996;8.334;2022-09-30T10:42:26;18.90;62.70
19060;DHT22;9663;48.996;8.334;2022-09-30T10:45:15;18.90;62.50
19060;DHT22;9663;48.996;8.334;2022-09-30T10:47:49;19.00;62.50
19060;DHT22;9663;48.996;8.334;2022-09-30T10:50:22;19.00;62.90
19060;DHT22;9663;48.996;8.334;2022-09-30T10:52:59;19.00;62.70
19060;DHT22;9663;48.996;8.334;2022-09-30T10:55:31;19.00;62.30
19060;DHT22;9663;48.996;8.334;2022-09-30T10:58:38;19.00;62.20
19060;DHT22;9663;48.996;8.334;2022-09-30T11:01:16;19.00;61.50
19060;DHT22;9663;48.996;8.334;2022-09-30T11:04:02;18.90;61.90
19060;DHT22;9663;48.996;8.334;2022-09-30T11:06:31;19.00;62.20
19060;DHT22;9663;48.996;8.334;2022-09-30T11:09:20;19.00;62.40
19060;DHT22;9663;48.996;8.334;2022-09-30T11:12:37;19.00;62.00
19060;DHT22;9663;48.996;8.334;2022-09-30T11:15:37;19.10;61.80
19060;DHT22;9663;48.996;8.334;2022-09-30T11:18:19;19.30;62.00
19060;DHT22;9663;48.996;8.334;2022-09-30T11:20:54;19.50;62.30
19060;DHT22;9663;48.996;8.334;2022-09-30T11:23:37;19.60;62.30
19060;DHT22;9663;48.996;8.334;2022-09-30T11:26:26;19.70;61.20
19060;DHT22;9663;48.996;8.334;2022-09-30T11:41:06;22.20;62.40
19060;DHT22;9663;48.996;8.334;2022-09-30T11:44:00;23.10;59.10
19060;DHT22;9663;48.996;8.334;2022-09-30T11:58:11;25.00;57.10
19060;DHT22;9663;48.996;8.334;2022-09-30T12:00:42;25.60;57.60
19060;DHT22;9663;48.996;8.334;2022-09-30T12:03:17;26.30;57.80
19060;DHT22;9663;48.996;8.334;2022-09-30T12:05:57;26.80;57.70
19060;DHT22;9663;48.996;8.334;2022-09-30T12:08:31;27.50;55.40
19060;DHT22;9663;48.996;8.334;2022-09-30T12:11:07;27.90;56.00
19060;DHT22;9663;48.996;8.334;2022-09-30T12:13:42;28.50;54.60
19060;DHT22;9663;48.996;8.334;2022-09-30T12:16:17;29.00;54.60
19060;DHT22;9663;48.996;8.334;2022-09-30T12:18:52;29.50;54.50
19060;DHT22;9663;48.996;8.334;2022-09-30T12:24:40;30.40;51.40
19060;DHT22;9663;48.996;8.334;2022-09-30T12:27:44;30.90;50.40
19060;DHT22;9663;48.996;8.334;2022-09-30T12:30:18;31.30;49.90
19060;DHT22;9663;48.996;8.334;2022-09-30T12:33:11;31.60;51.20
19060;DHT22;9663;48.996;8.334;2022-09-30T12:47:57;31.60;47.60
19060;DHT22;9663;48.996;8.334;2022-09-30T12:50:29;31.60;48.00
19060;DHT22;9663;48.996;8.334;2022-09-30T12:53:14;31.70;48.80
19060;DHT22;9663;48.996;8.334;2022-09-30T12:55:43;31.80;46.80
19060;DHT22;9663;48.996;8.334;2022-09-30T13:01:07;32.10;47.10
19060;DHT22;9663;48.996;8.334;2022-09-30T13:03:51;32.40;46.70
19060;DHT22;9663;48.996;8.334;2022-09-30T13:17:22;32.70;44.20
19060;DHT22;9663;48.996;8.334;2022-09-30T13:19:51;32.30;44.00
19060;DHT22;9663;48.996;8.334;2022-09-30T13:28:25;31.30;43.30
19060;DHT22;9663;48.996;8.334;2022-09-30T13:31:11;31.30;43.90
19060;DHT22;9663;48.996;8.334;2022-09-30T13:33:45;31.20;43.40
19060;DHT22;9663;48.996;8.334;2022-09-30T13:36:29;31.00;43.80
19060;DHT22;9663;48.996;8.334;2022-09-30T13:42:34;29.50;43.00
19060;DHT22;9663;48.996;8.334;2022-09-30T13:45:09;28.90;44.80
19060;DHT22;9663;48.996;8.334;2022-09-30T13:47:49;28.30;43.80
19060;DHT22;9663;48.996;8.334;2022-09-30T13:50:30;27.70;44.20
19060;DHT22;9663;48.996;8.334;2022-09-30T13:53:05;27.20;44.80
19060;DHT22;9663;48.996;8.334;2022-09-30T13:55:46;26.70;46.40
19060;DHT22;9663;48.996;8.334;2022-09-30T14:01:17;27.00;47.40
19060;DHT22;9663;48.996;8.334;2022-09-30T14:04:19;27.50;48.00
19060;DHT22;9663;48.996;8.334;2022-09-30T14:16:16;28.60;45.00
19060;DHT22;9663;48.996;8.334;2022-09-30T14:19:33;28.10;44.50
19060;DHT22;9663;48.996;8.334;2022-09-30T14:22:35;27.60;43.80
19060;DHT22;9663;48.996;8.334;2022-09-30T14:25:02;26.90;44.90
19060;DHT22;9663;48.996;8.334;2022-09-30T14:27:44;26.30;45.30
19060;DHT22;9663;48.996;8.334;2022-09-30T14:30:26;25.80;44.60
19060;DHT22;9663;48.996;8.334;2022-09-30T14:32:55;25.40;45.90
19060;DHT22;9663;48.996;8.334;2022-09-30T14:35:26;25.00;46.20
19060;DHT22;9663;48.996;8.334;2022-09-30T14:38:20;24.80;46.80
19060;DHT22;9663;48.996;8.334;2022-09-30T14:40:55;24.50;46.30
19060;DHT22;9663;48.996;8.334;2022-09-30T14:43:29;24.30;47.40
19060;DHT22;9663;48.996;8.334;2022-09-30T14:46:13;24.00;47.20
19060;DHT22;9663;48.996;8.334;2022-09-30T14:48:51;23.80;47.30
19060;DHT22;9663;48.996;8.334;2022-09-30T14:51:20;23.70;47.60
19060;DHT22;9663;48.996;8.334;2022-09-30T14:53:59;23.20;47.50
19060;DHT22;9663;48.996;8.334;2022-09-30T14:56:34;23.00;47.30
19060;DHT22;9663;48.996;8.334;2022-09-30T14:59:18;22.70;47.80
19060;DHT22;9663;48.996;8.334;2022-09-30T15:01:56;22.40;48.00
19060;DHT22;9663;48.996;8.334;2022-09-30T15:04:34;22.20;48.50
19060;DHT22;9663;48.996;8.334;2022-09-30T15:07:08;21.90;48.80
19060;DHT22;9663;48.996;8.334;2022-09-30T15:09:40;21.70;48.90
19060;DHT22;9663;48.996;8.334;2022-09-30T15:12:21;21.60;49.30
19060;DHT22;9663;48.996;8.334;2022-09-30T15:14:56;21.30;49.30
19060;DHT22;9663;48.996;8.334;2022-09-30T15:17:25;21.20;49.70
19060;DHT22;9663;48.996;8.334;2022-09-30T15:23:03;21.50;52.40
19060;DHT22;9663;48.996;8.334;2022-09-30T15:25:37;22.30;53.30
19060;DHT22;9663;48.996;8.334;2022-09-30T15:28:04;23.30;53.70
19060;DHT22;9663;48.996;8.334;2022-09-30T15:30:33;24.00;52.50
19060;DHT22;9663;48.996;8.334;2022-09-30T15:33:00;24.70;50.70
19060;DHT22;9663;48.996;8.334;2022-09-30T15:35:29;24.70;49.50
19060;DHT22;9663;48.996;8.334;2022-09-30T15:38:15;24.90;49.00
19060;DHT22;9663;48.996;8.334;2022-09-30T15:40:47;25.00;48.70
19060;DHT22;9663;48.996;8.334;2022-09-30T15:46:27;25.80;49.70
19060;DHT22;9663;48.996;8.334;2022-09-30T15:49:04;26.40;50.20
19060;DHT22;9663;48.996;8.334;2022-09-30T15:51:51;26.90;49.00
19060;DHT22;9663;48.996;8.334;2022-09-30T15:54:34;27.10;48.70
19060;DHT22;9663;48.996;8.334;2022-09-30T15:57:35;27.10;46.20
19060;DHT22;9663;48.996;8.334;2022-09-30T16:00:37;26.80;45.10
19060;DHT22;9663;48.996;8.334;2022-09-30T16:03:27;26.30;45.00
19060;DHT22;9663;48.996;8.334;2022-09-30T16:06:14;25.80;45.30
19060;DHT22;9663;48.996;8.334;2022-09-30T16:08:46;25.30;45.00
19060;DHT22;9663;48.996;8.334;2022-09-30T16:11:38;24.90;45.70
19060;DHT22;9663;48.996;8.334;2022-09-30T16:14:23;24.50;45.70
19060;DHT22;9663;48.996;8.334;2022-09-30T16:16:57;24.00;46.70
19060;DHT22;9663;48.996;8.334;2022-09-30T16:19:26;23.60;47.10
19060;DHT22;9663;48.996;8.334;2022-09-30T16:21:54;23.30;47.50
19060;DHT22;9663;48.996;8.334;2022-09-30T16:26:47;22.70;48.10
19060;DHT22;9663;48.996;8.334;2022-09-30T16:29:15;22.50;48.30
19060;DHT22;9663;48.996;8.334;2022-09-30T16:31:42;22.30;48.20
19060;DHT22;9663;48.996;8.334;2022-09-30T16:34:21;22.00;48.40
19060;DHT22;9663;48.996;8.334;2022-09-30T16:36:49;21.60;48.30
19060;DHT22;9663;48.996;8.334;2022-09-30T16:39:16;21.20;48.60
19060;DHT22;9663;48.996;8.334;2022-09-30T16:41:42;20.90;48.90
19060;DHT22;9663;48.996;8.334;2022-09-30T16:44:09;20.70;49.20
19060;DHT22;9663;48.996;8.334;2022-09-30T16:46:35;20.30;49.50
19060;DHT22;9663;48.996;8.334;2022-09-30T16:49:30;20.00;49.80
19060;DHT22;9663;48.996;8.334;2022-09-30T16:51:56;19.70;50.30
19060;DHT22;9663;48.996;8.334;2022-09-30T16:54:22;19.50;50.40
19060;DHT22;9663;48.996;8.334;2022-09-30T16:56:47;19.20;50.60
19060;DHT22;9663;48.996;8.334;2022-09-30T16:59:15;19.00;50.80
19060;DHT22;9663;48.996;8.334;2022-09-30T17:01:44;18.80;51.00
19060;DHT22;9663;48.996;8.334;2022-09-30T17:04:10;18.60;51.20
19060;DHT22;9663;48.996;8.334;2022-09-30T17:06:36;18.40;51.40
19060;DHT22;9663;48.996;8.334;2022-09-30T17:09:03;18.20;51.50
19060;DHT22;9663;48.996;8.334;2022-09-30T17:11:31;18.00;51.70
19060;DHT22;9663;48.996;8.334;2022-09-30T17:14:03;17.90;52.10
19060;DHT22;9663;48.996;8.334;2022-09-30T17:16:30;17.60;52.40
19060;DHT22;9663;48.996;8.334;2022-09-30T17:18:56;17.40;52.40
19060;DHT22;9663;48.996;8.334;2022-09-30T17:21:25;17.30;53.20
19060;DHT22;9663;48.996;8.334;2022-09-30T17:23:53;17.10;53.00
19060;DHT22;9663;48.996;8.334;2022-09-30T17:26:19;17.00;53.10
19060;DHT22;9663;48.996;8.334;2022-09-30T17:28:45;16.80;53.20
19060;DHT22;9663;48.996;8.334;2022-09-30T17:31:11;16.70;53.40
19060;DHT22;9663;48.996;8.334;2022-09-30T17:33:38;16.60;53.60
19060;DHT22;9663;48.996;8.334;2022-09-30T17:36:07;16.40;53.70
19060;DHT22;9663;48.996;8.334;2022-09-30T17:38:38;16.30;53.90
19060;DHT22;9663;48.996;8.334;2022-09-30T17:41:05;16.20;54.00
19060;DHT22;9663;48.996;8.334;2022-09-30T17:43:50;16.00;54.10
19060;DHT22;9663;48.996;8.334;2022-09-30T17:46:17;15.90;54.90
19060;DHT22;9663;48.996;8.334;2022-09-30T17:48:45;15.80;54.40
19060;DHT22;9663;48.996;8.334;2022-09-30T17:51:12;15.70;54.50
19060;DHT22;9663;48.996;8.334;2022-09-30T17:53:40;15.50;54.70
19060;DHT22;9663;48.996;8.334;2022-09-30T17:56:15;15.40;54.80
19060;DHT22;9663;48.996;8.334;2022-09-30T17:58:45;15.50;55.40
19060;DHT22;9663;48.996;8.334;2022-09-30T18:01:14;15.30;55.20
19060;DHT22;9663;48.996;8.334;2022-09-30T18:03:41;15.20;55.30
19060;DHT22;9663;48.996;8.334;2022-09-30T18:06:08;15.10;55.30
19060;DHT22;9663;48.996;8.334;2022-09-30T18:08:33;15.00;55.50
19060;DHT22;9663;48.996;8.334;2022-09-30T18:11:00;14.90;55.60
19060;DHT22;9663;48.996;8.334;2022-09-30T18:13:26;14.90;55.80
19060;DHT22;9663;48.996;8.334;2022-09-30T18:15:53;14.80;55.90
19060;DHT22;9663;48.996;8.334;2022-09-30T18:18:19;14.70;56.00
19060;DHT22;9663;48.996;8.334;2022-09-30T18:20:47;14.70;56.10
19060;DHT22;9663;48.996;8.334;2022-09-30T18:23:15;14.70;56.20
19060;DHT22;9663;48.996;8.334;2022-09-30T18:25:44;14.60;56.30
19060;DHT22;9663;48.996;8.334;2022-09-30T18:28:11;14.60;56.30
19060;DHT22;9663;48.996;8.334;2022-09-30T18:30:38;14.50;56.40
19060;DHT22;9663;48.996;8.334;2022-09-30T18:33:06;14.50;56.50
19060;DHT22;9663;48.996;8.334;2022-09-30T18:35:34;14.40;56.50
19060;DHT22;9663;48.996;8.334;2022-09-30T18:38:02;14.40;56.60
19060;DHT22;9663;48.996;8.334;2022-09-30T18:40:29;14.30;56.60
19060;DHT22;9663;48.996;8.334;2022-09-30T18:43:01;14.20;56.70
19060;DHT22;9663;48.996;8.334;2022-09-30T18:45:30;14.10;57.00
19060;DHT22;9663;48.996;8.334;2022-09-30T18:47:59;14.10;56.90
19060;DHT22;9663;48.996;8.334;2022-09-30T18:50:27;14.00;56.90
19060;DHT22;9663;48.996;8.334;2022-09-30T18:52:53;13.90;57.00
19060;DHT22;9663;48.996;8.334;2022-09-30T18:55:20;13.90;57.10
19060;DHT22;9663;48.996;8.334;2022-09-30T18:57:45;13.90;57.30
19060;DHT22;9663;48.996;8.334;2022-09-30T19:00:15;13.80;57.40
19060;DHT22;9663;48.996;8.334;2022-09-30T19:02:42;13.80;57.50